Time;durP1;ratioP1;P1;durP2;ratioP2;P2;SDS_P1;SDS_P2;PMS_P1;PMS_P2;Temp;Humidity;BMP_temperature;BMP_pressure;BME280_temperature;BME280_humidity;BME280_pressure;Samples;Min_cycle;Max_cycle;Signal;HPM_P1;HPM_P2
2023/05/10 00:02:27;;;;;;;12.00;2.60;;;;;;;9.28;55.50;100375.81;106398;1274;22517;-58
2023/05/10 00:04:58;;;;;;;12.30;3.60;;;;;;;9.23;55.74;100370.28;106554;1260;22524;-57
2023/05/10 00:07:29;;;;;;;13.10;3.20;;;;;;;9.20;55.70;100367.00;110428;1269;22247;-58
2023/05/10 00:10:00;;;;;;;12.20;3.00;;;;;;;9.14;55.85;100363.30;110480;1267;22339;-58
2023/05/10 00:12:31;;;;;;;9.90;2.80;;;;;;;9.09;56.01;100363.91;110508;1267;22474;-55
2023/05/10 00:15:02;;;;;;;9.20;2.60;;;;;;;9.05;56.15;100359.42;110502;1269;22326;-57
2023/05/10 00:17:33;;;;;;;9.30;2.80;;;;;;;9.00;56.27;100358.55;110474;1266;22138;-57
2023/05/10 00:20:05;;;;;;;11.40;2.90;;;;;;;8.95;56.43;100363.25;110459;1268;22390;-55
2023/05/10 00:22:36;;;;;;;9.10;2.10;;;;;;;8.93;56.55;100362.08;110476;1269;22181;-57
2023/05/10 00:25:10;;;;;;;8.40;2.20;;;;;;;8.90;56.58;100363.19;110468;1267;22456;-57
2023/05/10 00:27:41;;;;;;;13.50;3.30;;;;;;;8.86;56.67;100359.20;110452;1259;22282;-56
2023/05/10 00:30:13;;;;;;;15.80;2.90;;;;;;;8.83;56.75;100364.03;110488;1262;22202;-56
2023/05/10 00:32:44;;;;;;;14.70;3.30;;;;;;;8.82;56.96;100361.55;110487;1266;22345;-55
2023/05/10 00:35:15;;;;;;;11.90;3.20;;;;;;;8.78;56.97;100356.29;110492;1264;22158;-57
2023/05/10 00:37:46;;;;;;;12.60;2.90;;;;;;;8.76;57.16;100361.19;110517;1259;22162;-56
2023/05/10 00:40:17;;;;;;;12.80;3.30;;;;;;;8.72;57.36;100360.87;110463;1265;22241;-57
2023/05/10 00:42:49;;;;;;;11.90;3.20;;;;;;;8.67;57.41;100356.69;110479;1267;22853;-55
2023/05/10 00:45:20;;;;;;;12.70;3.10;;;;;;;8.61;57.60;100355.00;110465;1262;22202;-57
2023/05/10 00:47:51;;;;;;;10.70;2.80;;;;;;;8.57;57.68;100352.70;110493;1263;22484;-57
2023/05/10 00:50:23;;;;;;;15.70;4.50;;;;;;;8.54;57.77;100354.55;110480;1264;22321;-57
2023/05/10 00:52:54;;;;;;;18.80;3.30;;;;;;;8.51;57.86;100347.53;107053;1269;25115;-55
2023/05/10 00:55:26;;;;;;;16.80;3.60;;;;;;;8.48;58.05;100348.70;106400;1267;22558;-57
2023/05/10 00:57:57;;;;;;;11.80;2.90;;;;;;;8.44;58.22;100342.91;106540;1268;24246;-54
2023/05/10 01:00:29;;;;;;;12.50;3.60;;;;;;;8.41;58.44;100347.67;106495;1274;25373;-56
2023/05/10 01:03:01;;;;;;;12.10;3.10;;;;;;;8.37;58.47;100347.05;110472;1269;22248;-56
2023/05/10 01:05:32;;;;;;;10.60;3.60;;;;;;;8.32;58.71;100349.07;110517;1264;22378;-56
2023/05/10 01:08:03;;;;;;;16.40;3.80;;;;;;;8.29;58.83;100346.20;110487;1271;22169;-56
2023/05/10 01:10:34;;;;;;;15.60;3.90;;;;;;;8.25;58.88;100344.91;110514;1268;22995;-55
2023/05/10 01:13:05;;;;;;;12.50;3.50;;;;;;;8.21;59.03;100342.04;110475;1267;22214;-56
2023/05/10 01:15:37;;;;;;;14.20;4.20;;;;;;;8.17;59.14;100343.92;110373;1269;22917;-56
2023/05/10 01:18:09;;;;;;;15.40;3.80;;;;;;;8.14;59.25;100343.48;110432;1271;22897;-55
2023/05/10 01:20:48;;;;;;;16.60;3.90;;;;;;;8.13;59.47;100341.32;110405;1269;22355;-55
2023/05/10 01:23:49;;;;;;;16.00;3.50;;;;;;;8.12;59.58;100337.70;110427;1262;22809;-57
2023/05/10 01:26:54;;;;;;;11.10;3.10;;;;;;;8.10;59.54;100339.70;110382;1268;22187;-58
2023/05/10 01:29:48;;;;;;;13.20;3.10;;;;;;;8.09;59.77;100337.58;110357;1271;22185;-55
2023/05/10 01:32:30;;;;;;;13.80;2.80;;;;;;;8.06;59.94;100334.04;110410;1269;22230;-58
2023/05/10 01:35:08;;;;;;;15.50;3.70;;;;;;;8.05;60.01;100335.92;110398;1265;22960;-56
2023/05/10 01:37:46;;;;;;;9.30;2.70;;;;;;;8.04;60.09;100337.58;110102;1273;22634;-55
2023/05/10 01:40:25;;;;;;;13.10;3.30;;;;;;;8.03;60.28;100338.48;107247;1262;22527;-57
2023/05/10 01:43:01;;;;;;;14.20;3.40;;;;;;;8.02;60.31;100338.28;110354;1268;22174;-58
2023/05/10 01:45:40;;;;;;;14.70;2.60;;;;;;;8.02;60.43;100337.48;110416;1276;22227;-58
2023/05/10 01:48:12;;;;;;;12.40;3.40;;;;;;;8.02;60.52;100338.04;110415;1274;22449;-57
2023/05/10 01:50:46;;;;;;;14.70;3.70;;;;;;;8.01;60.56;100339.89;110391;1269;22170;-57
2023/05/10 01:53:21;;;;;;;13.70;3.50;;;;;;;8.00;60.59;100336.06;110415;1273;22886;-55
2023/05/10 01:55:54;;;;;;;13.70;3.50;;;;;;;7.99;60.72;100334.82;110398;1269;22265;-57
2023/05/10 01:58:31;;;;;;;13.80;3.60;;;;;;;7.97;60.80;100333.55;110402;1272;22304;-56
2023/05/10 02:01:04;;;;;;;13.20;3.50;;;;;;;7.95;60.89;100335.31;110412;1272;22311;-55
2023/05/10 02:03:39;;;;;;;13.70;3.40;;;;;;;7.94;61.02;100328.76;110431;1269;22322;-56
2023/05/10 02:06:12;;;;;;;14.00;3.10;;;;;;;7.93;61.02;100333.17;110466;1269;22419;-55
2023/05/10 02:08:45;;;;;;;11.40;3.30;;;;;;;7.91;61.12;100331.83;109291;1265;24372;-57
2023/05/10 02:11:18;;;;;;;11.80;2.90;;;;;;;7.90;61.20;100331.09;110395;1265;22623;-58
2023/05/10 02:13:50;;;;;;;12.80;3.70;;;;;;;7.89;61.31;100329.20;110467;1272;22491;-57
2023/05/10 02:16:25;;;;;;;11.00;3.40;;;;;;;7.87;61.27;100322.58;110475;1268;22310;-54
2023/05/10 02:18:59;;;;;;;15.60;3.00;;;;;;;7.86;61.37;100322.34;110509;1268;22328;-55
2023/05/10 02:21:32;;;;;;;18.30;3.40;;;;;;;7.85;61.50;100321.13;110490;1272;22122;-57
2023/05/10 02:24:05;;;;;;;12.70;3.00;;;;;;;7.83;61.57;100320.08;110494;1272;22192;-57
2023/05/10 02:26:39;;;;;;;11.00;3.30;;;;;;;7.81;61.67;100319.79;110489;1269;22300;-55
2023/05/10 02:29:12;;;;;;;10.70;2.80;;;;;;;7.80;61.68;100318.30;110490;1269;22322;-56
2023/05/10 02:31:44;;;;;;;11.20;2.80;;;;;;;7.76;61.79;100313.45;110467;1266;23466;-57
2023/05/10 02:34:16;;;;;;;17.40;3.30;;;;;;;7.75;61.82;100312.58;110476;1265;22348;-58
2023/05/10 02:36:47;;;;;;;11.60;2.50;;;;;;;7.72;61.90;100315.36;110481;1266;22392;-57
2023/05/10 02:39:19;;;;;;;16.30;4.40;;;;;;;7.68;62.12;100318.40;110527;1272;22132;-56
2023/05/10 02:41:51;;;;;;;15.30;3.20;;;;;;;7.64;62.30;100321.02;110470;1263;22988;-57
2023/05/10 02:44:23;;;;;;;14.00;4.00;;;;;;;7.61;62.29;100319.28;110463;1268;22900;-58
2023/05/10 02:46:55;;;;;;;11.50;3.00;;;;;;;7.59;62.46;100316.22;110458;1269;22386;-57
2023/05/10 02:49:26;;;;;;;14.50;3.40;;;;;;;7.56;62.47;100314.27;110472;1268;22294;-58
2023/05/10 02:52:01;;;;;;;13.20;3.40;;;;;;;7.54;62.60;100311.63;110478;1267;23562;-55
2023/05/10 02:54:45;;;;;;;13.70;3.60;;;;;;;7.53;62.62;100315.23;110446;1271;22294;-58
2023/05/10 02:57:27;;;;;;;18.50;4.00;;;;;;;7.53;62.78;100313.90;107156;1270;22515;-55
2023/05/10 03:00:00;;;;;;;14.70;3.80;;;;;;;7.54;62.84;100317.59;110453;1269;22137;-59
2023/05/10 03:02:31;;;;;;;11.80;2.80;;;;;;;7.56;62.87;100312.77;110457;1273;23068;-58
2023/05/10 03:05:02;;;;;;;17.20;3.80;;;;;;;7.57;62.92;100318.92;110472;1268;22209;-59
2023/05/10 03:07:34;;;;;;;17.10;3.70;;;;;;;7.58;62.94;100318.31;110479;1271;22361;-59
2023/05/10 03:10:07;;;;;;;12.70;3.00;;;;;;;7.58;63.06;100320.04;110435;1270;22429;-59
2023/05/10 03:12:53;;;;;;;12.40;3.20;;;;;;;7.59;63.13;100322.41;110411;1259;22539;-59
2023/05/10 03:15:32;;;;;;;13.20;4.30;;;;;;;7.59;63.10;100322.95;110470;1275;22202;-58
2023/05/10 03:18:09;;;;;;;14.00;3.20;;;;;;;7.60;63.17;100322.91;110522;1275;22215;-59
2023/05/10 03:20:45;;;;;;;19.00;4.10;;;;;;;7.60;63.23;100323.00;110468;1262;23332;-56
2023/05/10 03:23:27;;;;;;;18.00;3.30;;;;;;;7.59;63.30;100321.42;109115;1272;24245;-58
2023/05/10 03:26:00;;;;;;;13.60;2.90;;;;;;;7.58;63.37;100322.67;110539;1269;22231;-61
2023/05/10 03:28:32;;;;;;;12.30;4.00;;;;;;;7.57;63.41;100326.36;110506;1268;22110;-61
2023/05/10 03:31:05;;;;;;;15.70;3.70;;;;;;;7.57;63.44;100321.91;110497;1272;22253;-60
2023/05/10 03:33:36;;;;;;;12.60;3.40;;;;;;;7.57;63.60;100321.30;110516;1263;22181;-60
2023/05/10 03:36:08;;;;;;;15.30;4.00;;;;;;;7.57;63.56;100321.20;110520;1275;22961;-61
2023/05/10 03:38:39;;;;;;;10.70;3.00;;;;;;;7.56;63.70;100319.88;110508;1268;22166;-60
2023/05/10 03:41:10;;;;;;;16.30;3.70;;;;;;;7.57;63.76;100321.11;110430;1263;22330;-63
2023/05/10 03:43:41;;;;;;;13.40;3.20;;;;;;;7.59;63.70;100320.42;110478;1260;22254;-62
2023/05/10 03:46:11;;;;;;;14.70;3.80;;;;;;;7.59;63.74;100315.27;110486;1263;22180;-61
2023/05/10 03:48:42;;;;;;;14.00;3.80;;;;;;;7.60;63.83;100318.23;110526;1272;22855;-60
2023/05/10 03:51:13;;;;;;;13.80;3.60;;;;;;;7.61;63.86;100319.78;110498;1275;22200;-60
2023/05/10 03:53:44;;;;;;;14.40;3.40;;;;;;;7.63;64.02;100319.63;110460;1265;22667;-62
2023/05/10 03:56:15;;;;;;;10.80;2.80;;;;;;;7.64;63.99;100319.48;110457;1269;22527;-60
2023/05/10 03:58:46;;;;;;;11.70;3.20;;;;;;;7.65;64.04;100314.85;110454;1263;22208;-61
2023/05/10 04:01:16;;;;;;;15.00;3.00;;;;;;;7.66;64.13;100318.80;110495;1263;22221;-61
2023/05/10 04:03:47;;;;;;;14.40;2.80;;;;;;;7.66;64.12;100312.20;110462;1265;22519;-59
2023/05/10 04:06:18;;;;;;;14.00;3.50;;;;;;;7.69;64.26;100311.54;110477;1268;22135;-61
2023/05/10 04:08:49;;;;;;;16.40;3.10;;;;;;;7.72;64.33;100318.54;110469;1270;22329;-59
2023/05/10 04:11:21;;;;;;;15.30;3.80;;;;;;;7.74;64.41;100312.86;110429;1269;22891;-59
2023/05/10 04:13:52;;;;;;;14.00;3.10;;;;;;;7.76;64.39;100314.03;110478;1267;22214;-57
2023/05/10 04:16:23;;;;;;;13.40;3.50;;;;;;;7.78;64.45;100311.72;110469;1269;22293;-58
2023/05/10 04:18:55;;;;;;;12.40;4.00;;;;;;;7.82;64.62;100318.22;110425;1259;23015;-56
2023/05/10 04:21:25;;;;;;;10.50;2.60;;;;;;;7.86;64.68;100317.95;110451;1267;22425;-55
2023/05/10 04:23:56;;;;;;;14.40;3.40;;;;;;;7.90;64.76;100317.31;110498;1268;22272;-58
2023/05/10 04:26:27;;;;;;;16.20;4.00;;;;;;;7.95;64.73;100315.33;110481;1263;22325;-61
2023/05/10 04:28:58;;;;;;;14.60;3.20;;;;;;;7.99;64.74;100314.02;110472;1260;22141;-62
2023/05/10 04:31:29;;;;;;;16.30;3.50;;;;;;;8.03;64.91;100312.02;106788;1275;24299;-59
2023/05/10 04:34:00;;;;;;;11.40;2.80;;;;;;;8.07;64.96;100307.65;106746;1269;24544;-59
2023/05/10 04:36:32;;;;;;;16.40;3.30;;;;;;;8.13;65.00;100308.41;106838;1275;25223;-59
2023/05/10 04:39:03;;;;;;;13.30;4.20;;;;;;;8.19;65.04;100307.86;106734;1275;25318;-59
2023/05/10 04:41:35;;;;;;;12.90;3.10;;;;;;;8.25;64.97;100305.63;107430;1271;25976;-61
2023/05/10 04:44:07;;;;;;;15.20;3.50;;;;;;;8.34;65.00;100309.70;106846;1275;23649;-61
2023/05/10 04:46:37;;;;;;;10.40;2.90;;;;;;;8.43;64.94;100307.17;110461;1265;22255;-60
2023/05/10 04:49:08;;;;;;;11.50;2.80;;;;;;;8.53;64.83;100307.23;110431;1267;22526;-60
2023/05/10 04:51:39;;;;;;;12.50;3.50;;;;;;;8.63;64.73;100307.73;110469;1267;22422;-61
2023/05/10 04:54:10;;;;;;;12.30;3.00;;;;;;;8.72;64.52;100309.64;110430;1272;22198;-61
2023/05/10 04:56:41;;;;;;;10.50;3.00;;;;;;;8.83;64.48;100307.41;110508;1269;22407;-61
2023/05/10 04:59:12;;;;;;;13.90;3.30;;;;;;;8.93;64.35;100308.72;110468;1268;22255;-61
2023/05/10 05:01:43;;;;;;;12.20;3.30;;;;;;;9.02;64.07;100309.40;110491;1272;22314;-61
2023/05/10 05:04:14;;;;;;;13.70;3.70;;;;;;;9.12;63.99;100307.92;110494;1272;22245;-61
2023/05/10 05:06:45;;;;;;;15.00;2.60;;;;;;;9.22;63.75;100311.48;110429;1259;22146;-62
2023/05/10 05:09:16;;;;;;;12.80;3.00;;;;;;;9.34;63.84;100306.51;110421;1275;22381;-61
2023/05/10 05:11:47;;;;;;;11.40;2.90;;;;;;;9.45;63.32;100302.94;110428;1272;22371;-61
2023/05/10 05:14:18;;;;;;;12.40;3.40;;;;;;;9.56;63.32;100306.34;110448;1269;22989;-61
2023/05/10 05:16:49;;;;;;;12.10;3.40;;;;;;;9.65;63.23;100303.54;110491;1262;22204;-61
2023/05/10 05:19:20;;;;;;;10.60;2.70;;;;;;;9.76;63.27;100306.63;110487;1269;22412;-61
2023/05/10 05:21:51;;;;;;;12.20;3.50;;;;;;;9.91;63.15;100305.38;110411;1267;22382;-61
2023/05/10 05:24:21;;;;;;;12.40;2.90;;;;;;;10.04;62.77;100303.69;110466;1267;22138;-61
2023/05/10 05:26:53;;;;;;;10.50;3.00;;;;;;;10.15;62.78;100305.64;110483;1263;22221;-61
2023/05/10 05:29:23;;;;;;;10.40;2.30;;;;;;;10.27;62.04;100303.94;110475;1272;23552;-61
2023/05/10 05:31:54;;;;;;;14.10;3.80;;;;;;;10.36;62.15;100301.20;110479;1268;22187;-60
2023/05/10 05:34:25;;;;;;;12.80;2.80;;;;;;;10.49;61.67;100299.48;110437;1270;22975;-61
2023/05/10 05:36:56;;;;;;;12.60;2.90;;;;;;;10.60;61.35;100298.58;110492;1268;22178;-61
2023/05/10 05:39:27;;;;;;;14.60;3.60;;;;;;;10.67;61.22;100301.04;110491;1275;22206;-61
2023/05/10 05:41:59;;;;;;;11.30;3.10;;;;;;;10.73;61.06;100297.34;110484;1272;22310;-61
2023/05/10 05:44:30;;;;;;;12.00;3.40;;;;;;;10.84;61.13;100294.55;110477;1272;22382;-60
2023/05/10 05:47:01;;;;;;;11.80;2.60;;;;;;;10.93;60.75;100301.70;109215;1269;22537;-61
2023/05/10 05:49:32;;;;;;;12.60;3.10;;;;;;;11.05;60.56;100301.34;106807;1265;22633;-61
2023/05/10 05:52:04;;;;;;;13.40;3.70;;;;;;;11.16;60.29;100306.07;110464;1271;22196;-60
2023/05/10 05:54:35;;;;;;;13.90;2.80;;;;;;;11.25;60.23;100305.97;110459;1268;23085;-61
2023/05/10 05:57:05;;;;;;;13.20;3.30;;;;;;;11.33;59.89;100304.58;110493;1275;22328;-62
2023/05/10 05:59:41;;;;;;;11.70;2.50;;;;;;;11.44;59.50;100304.86;109512;1267;22550;-63
2023/05/10 06:02:12;;;;;;;10.80;2.20;;;;;;;11.51;59.43;100302.44;110493;1268;22242;-61
2023/05/10 06:04:43;;;;;;;13.00;3.30;;;;;;;11.59;59.26;100300.82;110460;1273;23064;-62
2023/05/10 06:07:14;;;;;;;13.80;3.20;;;;;;;11.69;59.15;100301.28;110455;1270;22138;-61
2023/05/10 06:09:44;;;;;;;11.60;3.10;;;;;;;11.79;58.82;100296.03;110437;1267;22360;-62
2023/05/10 06:12:16;;;;;;;14.70;2.80;;;;;;;11.87;58.70;100301.14;110451;1275;22232;-62
2023/05/10 06:14:47;;;;;;;13.60;2.60;;;;;;;11.95;58.45;100299.33;110440;1272;22462;-63
2023/05/10 06:17:18;;;;;;;8.70;2.30;;;;;;;12.01;58.17;100302.82;110469;1270;22194;-62
2023/05/10 06:19:49;;;;;;;17.10;3.50;;;;;;;12.10;58.27;100301.73;110456;1272;22181;-62
2023/05/10 06:22:21;;;;;;;14.90;4.20;;;;;;;12.22;58.43;100306.31;110461;1270;22445;-65
2023/05/10 06:24:52;;;;;;;11.30;2.20;;;;;;;12.33;57.79;100308.23;110463;1270;23258;-62
2023/05/10 06:27:24;;;;;;;13.50;2.90;;;;;;;12.42;57.39;100305.33;109773;1275;22597;-61
2023/05/10 06:29:55;;;;;;;11.90;2.30;;;;;;;12.50;57.40;100308.91;110437;1269;22375;-61
2023/05/10 06:32:26;;;;;;;9.30;2.60;;;;;;;12.58;56.90;100308.44;110471;1270;22307;-62
2023/05/10 06:34:57;;;;;;;8.90;2.20;;;;;;;12.65;57.13;100303.69;110490;1267;22240;-61
2023/05/10 06:37:28;;;;;;;7.90;1.80;;;;;;;12.75;56.83;100301.87;110454;1265;22266;-62
2023/05/10 06:39:59;;;;;;;9.90;2.10;;;;;;;12.82;56.43;100293.86;106292;1267;5444902;-62
2023/05/10 06:42:30;;;;;;;14.10;2.60;;;;;;;12.92;56.29;100293.51;110456;1274;22287;-62
2023/05/10 06:45:01;;;;;;;12.40;2.60;;;;;;;13.01;56.35;100293.34;110485;1267;22776;-62
2023/05/10 06:47:32;;;;;;;9.00;2.60;;;;;;;13.11;56.43;100287.25;110491;1261;23115;-63
2023/05/10 06:50:03;;;;;;;9.40;2.70;;;;;;;13.22;55.72;100289.89;110026;1271;25243;-62
2023/05/10 06:52:34;;;;;;;12.80;3.10;;;;;;;13.31;55.69;100290.64;110465;1272;23202;-63
2023/05/10 06:55:06;;;;;;;11.50;2.40;;;;;;;13.41;55.78;100292.20;110460;1272;22578;-62
2023/05/10 06:57:37;;;;;;;11.20;1.90;;;;;;;13.50;55.36;100295.95;110461;1266;23191;-59
2023/05/10 07:00:10;;;;;;;12.10;2.20;;;;;;;13.59;55.01;100292.70;110484;1275;23016;-62
2023/05/10 07:02:41;;;;;;;11.00;2.20;;;;;;;13.67;55.21;100288.37;110456;1268;23043;-62
2023/05/10 07:05:12;;;;;;;11.60;2.80;;;;;;;13.76;54.85;100288.43;110469;1272;22176;-62
2023/05/10 07:07:43;;;;;;;7.70;2.00;;;;;;;13.85;54.87;100290.12;110453;1267;22892;-62
2023/05/10 07:10:14;;;;;;;8.90;1.90;;;;;;;13.95;54.70;100289.84;110457;1272;22766;-62
2023/05/10 07:12:45;;;;;;;10.60;2.10;;;;;;;14.04;54.51;100285.29;110473;1267;22327;-62
2023/05/10 07:15:16;;;;;;;6.20;1.60;;;;;;;14.12;54.25;100283.96;110502;1275;22673;-61
2023/05/10 07:17:47;;;;;;;9.50;2.20;;;;;;;14.20;54.06;100281.97;110483;1267;22215;-60
2023/05/10 07:20:18;;;;;;;7.40;1.70;;;;;;;14.28;53.82;100279.70;110462;1267;22192;-62
2023/05/10 07:22:49;;;;;;;7.20;1.80;;;;;;;14.35;53.68;100281.30;110452;1267;22279;-62
2023/05/10 07:25:20;;;;;;;9.20;1.90;;;;;;;14.41;53.50;100277.14;110474;1271;22189;-61
2023/05/10 07:27:51;;;;;;;10.80;1.60;;;;;;;14.47;53.33;100272.91;110463;1275;22582;-61
2023/05/10 07:30:23;;;;;;;8.30;1.70;;;;;;;14.57;53.38;100273.36;110433;1273;22215;-62
2023/05/10 07:32:53;;;;;;;7.80;1.60;;;;;;;14.67;53.25;100273.65;110455;1272;22288;-63
2023/05/10 07:35:24;;;;;;;8.10;1.60;;;;;;;14.77;53.27;100267.50;110476;1267;22310;-62
2023/05/10 07:37:56;;;;;;;8.30;1.90;;;;;;;14.89;53.14;100268.50;108041;1273;24218;-63
2023/05/10 07:40:27;;;;;;;6.50;1.70;;;;;;;15.00;52.87;100262.89;110316;1268;22245;-62
2023/05/10 07:42:59;;;;;;;8.80;1.60;;;;;;;15.10;52.84;100267.40;110330;1266;22253;-61
2023/05/10 07:45:30;;;;;;;10.10;1.80;;;;;;;15.19;52.61;100261.83;110178;1267;22921;-62
2023/05/10 07:48:01;;;;;;;7.90;1.80;;;;;;;15.26;52.43;100256.98;106666;1275;25525;-61
2023/05/10 07:50:32;;;;;;;10.10;2.10;;;;;;;15.36;52.62;100253.90;106612;1264;22633;-62
2023/05/10 07:53:03;;;;;;;8.00;1.70;;;;;;;15.47;52.77;100258.18;106494;1257;22570;-61
2023/05/10 07:55:34;;;;;;;7.80;2.30;;;;;;;15.58;52.55;100256.69;106547;1267;25384;-62
2023/05/10 07:58:06;;;;;;;10.00;1.90;;;;;;;15.65;52.13;100257.80;106640;1267;23016;-61
2023/05/10 08:00:39;;;;;;;9.40;1.90;;;;;;;15.72;52.08;100258.61;110457;1267;22406;-61
2023/05/10 08:03:10;;;;;;;9.80;2.20;;;;;;;15.77;52.11;100252.41;110485;1274;23035;-62
2023/05/10 08:05:41;;;;;;;7.70;1.90;;;;;;;15.84;51.99;100253.58;110454;1272;22177;-63
2023/05/10 08:08:11;;;;;;;6.60;1.50;;;;;;;15.91;51.53;100246.55;110450;1264;22252;-62
2023/05/10 08:10:42;;;;;;;10.40;2.10;;;;;;;15.97;51.20;100245.15;110438;1267;22258;-63
2023/05/10 08:13:13;;;;;;;9.50;2.00;;;;;;;16.04;51.81;100235.60;110469;1272;23094;-61
2023/05/10 08:15:44;;;;;;;9.60;1.90;;;;;;;16.12;51.60;100235.62;110417;1267;22877;-62
2023/05/10 08:18:16;;;;;;;11.00;2.00;;;;;;;16.19;51.40;100235.65;110480;1275;22897;-62
2023/05/10 08:20:46;;;;;;;11.30;2.00;;;;;;;16.29;51.11;100237.96;110441;1261;23106;-62
2023/05/10 08:23:18;;;;;;;24.60;5.80;;;;;;;16.38;51.21;100237.41;109468;1271;22531;-62
2023/05/10 08:25:49;;;;;;;8.40;1.70;;;;;;;16.48;51.32;100241.77;110488;1268;22292;-62
2023/05/10 08:28:20;;;;;;;8.90;1.90;;;;;;;16.61;51.07;100236.91;110457;1267;22195;-62
2023/05/10 08:30:52;;;;;;;6.10;1.70;;;;;;;16.74;51.13;100239.05;110435;1260;23004;-62
2023/05/10 08:33:23;;;;;;;9.10;2.10;;;;;;;16.84;50.80;100233.90;110480;1275;22241;-62
2023/05/10 08:35:54;;;;;;;8.30;1.70;;;;;;;16.92;50.54;100237.70;110425;1267;22173;-63
2023/05/10 08:38:25;;;;;;;6.70;1.40;;;;;;;16.98;50.26;100236.02;110461;1267;22143;-62
2023/05/10 08:40:58;;;;;;;12.60;1.60;;;;;;;17.07;50.28;100231.39;110459;1267;23175;-61
2023/05/10 08:43:30;;;;;;;7.10;1.30;;;;;;;17.16;50.03;100230.45;110488;1271;22173;-62
2023/05/10 08:46:04;;;;;;;7.10;1.40;;;;;;;17.24;50.01;100227.70;110456;1268;22261;-62
2023/05/10 08:48:36;;;;;;;7.10;1.40;;;;;;;17.34;49.91;100229.02;110475;1267;22905;-62
2023/05/10 08:51:09;;;;;;;7.00;1.40;;;;;;;17.40;49.39;100232.59;110483;1267;22183;-63
2023/05/10 08:53:40;;;;;;;6.60;1.30;;;;;;;17.45;49.47;100230.19;110460;1267;22322;-62
2023/05/10 08:56:11;;;;;;;6.90;1.30;;;;;;;17.51;49.53;100226.15;110472;1274;23053;-62
2023/05/10 08:58:42;;;;;;;8.00;1.50;;;;;;;17.63;49.21;100225.89;110488;1260;22594;-63
2023/05/10 09:01:14;;;;;;;6.50;1.00;;;;;;;17.71;49.14;100227.41;110447;1273;22273;-62
2023/05/10 09:03:47;;;;;;;6.10;1.40;;;;;;;17.79;48.94;100228.30;110454;1267;22265;-63
2023/05/10 09:06:18;;;;;;;6.70;1.20;;;;;;;17.87;48.63;100223.27;110466;1274;23152;-62
2023/05/10 09:08:49;;;;;;;5.60;1.30;;;;;;;17.94;48.56;100225.67;110495;1272;22174;-62
2023/05/10 09:11:20;;;;;;;6.10;1.10;;;;;;;18.03;48.87;100224.14;110482;1270;22157;-62
2023/05/10 09:13:53;;;;;;;6.40;1.80;;;;;;;18.10;48.46;100226.48;110454;1267;22299;-62
2023/05/10 09:16:24;;;;;;;7.30;1.30;;;;;;;18.15;48.21;100230.82;110452;1267;22343;-62
2023/05/10 09:18:55;;;;;;;6.70;1.40;;;;;;;18.20;47.44;100226.23;110477;1260;22432;-62
2023/05/10 09:21:25;;;;;;;4.10;1.20;;;;;;;18.22;47.67;100225.14;110481;1274;22279;-62
2023/05/10 09:23:56;;;;;;;4.80;1.10;;;;;;;18.27;47.69;100226.82;110473;1267;22298;-63
2023/05/10 09:26:27;;;;;;;6.80;1.40;;;;;;;18.33;47.40;100223.97;110467;1269;22250;-62
2023/05/10 09:29:00;;;;;;;6.20;1.50;;;;;;;18.37;46.96;100226.95;110404;1268;22185;-62
2023/05/10 09:31:50;;;;;;;5.70;1.20;;;;;;;18.40;47.04;100232.45;110479;1268;22316;-61
2023/05/10 09:34:29;;;;;;;7.90;1.60;;;;;;;18.45;47.20;100226.67;110460;1272;22370;-63
2023/05/10 09:37:04;;;;;;;8.20;1.80;;;;;;;18.49;47.11;100228.77;110449;1269;22176;-63
2023/05/10 09:39:36;;;;;;;7.70;1.50;;;;;;;18.55;47.22;100234.75;110495;1267;22325;-63
2023/05/10 09:42:22;;;;;;;11.20;1.90;;;;;;;18.63;47.21;100237.39;110477;1274;22124;-63
2023/05/10 09:44:54;;;;;;;6.10;1.30;;;;;;;18.70;46.56;100235.23;110505;1268;22196;-62
2023/05/10 09:47:26;;;;;;;7.00;1.50;;;;;;;18.71;46.31;100235.83;110506;1264;22137;-62
2023/05/10 09:50:02;;;;;;;7.50;1.20;;;;;;;18.71;46.18;100236.65;110484;1271;22186;-63
2023/05/10 09:52:48;;;;;;;9.60;1.60;;;;;;;18.73;46.52;100229.94;110493;1263;23178;-63
2023/05/10 09:55:21;;;;;;;7.50;1.70;;;;;;;18.79;46.46;100230.73;110465;1264;22126;-62
2023/05/10 09:58:01;;;;;;;6.40;1.60;;;;;;;18.86;46.29;100224.55;110448;1267;22191;-62
2023/05/10 10:00:35;;;;;;;;;;;;;;;18.94;45.92;100220.15;110459;1267;22347;-63
2023/05/10 10:03:07;;;;;;;6.30;1.40;;;;;;;18.97;45.73;100220.34;110435;1274;22649;-62
2023/05/10 10:05:41;;;;;;;11.70;1.80;;;;;;;18.99;45.39;100219.73;110456;1267;22486;-62
2023/05/10 10:08:13;;;;;;;4.00;1.30;;;;;;;19.00;45.17;100219.70;110508;1269;23163;-62
2023/05/10 10:10:45;;;;;;;5.80;1.40;;;;;;;19.01;45.38;100217.38;110471;1268;22961;-63
2023/05/10 10:13:17;;;;;;;6.70;1.20;;;;;;;19.04;45.30;100215.59;110487;1259;22210;-63
2023/05/10 10:15:50;;;;;;;6.10;1.10;;;;;;;19.10;45.25;100217.85;109161;1267;25502;-62
2023/05/10 10:18:26;;;;;;;6.70;1.40;;;;;;;19.17;45.38;100209.15;110481;1275;22234;-62
2023/05/10 10:20:58;;;;;;;8.80;1.50;;;;;;;19.26;45.30;100208.94;110478;1268;22180;-64
2023/05/10 10:23:30;;;;;;;8.10;1.20;;;;;;;19.31;45.24;100201.96;110502;1269;22941;-64
2023/05/10 10:26:01;;;;;;;9.10;1.40;;;;;;;19.36;45.18;100203.39;110503;1263;22263;-62
2023/05/10 10:28:41;;;;;;;5.70;1.30;;;;;;;19.39;44.56;100202.27;110452;1262;22231;-63
2023/05/10 10:31:22;;;;;;;10.80;1.10;;;;;;;19.40;44.72;100198.80;110469;1267;22220;-63
2023/05/10 10:34:01;;;;;;;15.50;1.40;;;;;;;19.46;44.21;100199.48;110453;1260;22194;-63
2023/05/10 10:36:33;;;;;;;11.50;1.40;;;;;;;19.50;44.02;100197.49;110504;1270;22319;-63
2023/05/10 10:39:09;;;;;;;3.60;1.10;;;;;;;19.52;44.06;100196.63;110473;1270;23182;-63
2023/05/10 10:41:49;;;;;;;5.00;1.00;;;;;;;19.53;43.95;100196.21;110442;1267;22341;-63
2023/05/10 10:44:26;;;;;;;;;;;;;;;19.58;44.07;100201.45;110478;1267;23419;-63
2023/05/10 10:47:05;;;;;;;3.90;1.10;;;;;;;19.62;43.85;100194.85;110474;1267;22178;-63
2023/05/10 10:49:43;;;;;;;6.50;1.00;;;;;;;19.65;43.94;100192.11;110478;1268;21964;-63
2023/05/10 10:52:22;;;;;;;7.40;1.20;;;;;;;19.68;43.32;100190.45;110450;1268;23377;-64
2023/05/10 10:55:01;;;;;;;7.90;1.20;;;;;;;19.70;43.25;100194.34;110433;1267;23037;-63
2023/05/10 10:57:34;;;;;;;12.10;1.30;;;;;;;19.72;43.29;100193.53;110506;1267;22338;-64
2023/05/10 11:00:24;;;;;;;8.10;1.00;;;;;;;19.76;43.39;100189.06;110490;1275;22184;-63
2023/05/10 11:02:57;;;;;;;5.10;1.40;;;;;;;19.84;43.52;100185.60;110490;1264;22165;-62
2023/05/10 11:05:42;;;;;;;6.20;1.10;;;;;;;19.91;43.37;100181.92;110515;1261;22235;-62
2023/05/10 11:08:17;;;;;;;8.00;1.30;;;;;;;19.94;43.45;100186.97;110470;1263;22150;-61
2023/05/10 11:11:03;;;;;;;6.60;1.40;;;;;;;19.97;43.29;100184.84;110466;1267;22185;-63
2023/05/10 11:13:38;;;;;;;8.50;1.50;;;;;;;20.03;42.91;100192.97;110449;1271;22204;-63
2023/05/10 11:16:17;;;;;;;5.90;1.20;;;;;;;20.05;42.41;100188.58;110484;1268;22195;-64
2023/05/10 11:19:02;;;;;;;5.70;1.00;;;;;;;19.97;42.31;100188.91;110485;1259;22281;-63
2023/05/10 11:21:34;;;;;;;10.50;1.30;;;;;;;19.90;42.63;100192.30;110470;1267;22164;-63
2023/05/10 11:24:16;;;;;;;4.70;1.00;;;;;;;19.88;42.67;100184.71;110451;1268;22171;-63
2023/05/10 11:26:46;;;;;;;14.40;1.60;;;;;;;19.91;42.55;100177.13;110465;1262;22199;-63
2023/05/10 11:29:18;;;;;;;3.60;0.90;;;;;;;19.99;42.52;100184.20;110483;1272;22207;-63
2023/05/10 11:31:50;;;;;;;8.10;1.10;;;;;;;20.05;42.18;100175.35;110436;1262;22585;-61
2023/05/10 11:34:29;;;;;;;10.10;1.10;;;;;;;20.11;41.89;100180.84;110475;1268;22383;-62
2023/05/10 11:37:00;;;;;;;5.20;0.90;;;;;;;20.20;41.89;100176.14;110506;1267;23072;-61
2023/05/10 11:39:33;;;;;;;4.00;0.80;;;;;;;20.26;41.70;100175.31;110521;1267;22399;-61
2023/05/10 11:42:04;;;;;;;5.90;0.80;;;;;;;20.27;41.42;100178.43;110419;1275;22195;-61
2023/05/10 11:44:35;;;;;;;8.80;1.10;;;;;;;20.27;41.47;100179.21;110456;1266;23127;-62